sensor_id;sensor_type;location;lat;lon;timestamp;P1;durP1;ratioP1;P2;durP2;ratioP2
30249;SDS011;17064;47.974;13.826;2022-08-07T00:00:16;9.30;;;8.20;;
30249;SDS011;17064;47.974;13.826;2022-08-07T00:05:37;7.90;;;7.10;;
30249;SDS011;17064;47.974;13.826;2022-08-07T00:10:58;8.55;;;7.57;;
30249;SDS011;17064;47.974;13.826;2022-08-07T00:16:19;10.00;;;7.63;;
30249;SDS011;17064;47.974;13.826;2022-08-07T00:21:40;15.23;;;9.25;;
30249;SDS011;17064;47.974;13.826;2022-08-07T00:27:01;12.23;;;8.85;;
30249;SDS011;17064;47.974;13.826;2022-08-07T00:32:23;11.27;;;9.55;;
30249;SDS011;17064;47.974;13.826;2022-08-07T00:37:44;14.18;;;9.77;;
30249;SDS011;17064;47.974;13.826;2022-08-07T00:43:05;13.93;;;9.82;;
30249;SDS011;17064;47.974;13.826;2022-08-07T00:48:30;12.60;;;10.48;;
30249;SDS011;17064;47.974;13.826;2022-08-07T00:53:51;12.98;;;10.95;;
30249;SDS011;17064;47.974;13.826;2022-08-07T00:59:12;15.15;;;11.32;;
30249;SDS011;17064;47.974;13.826;2022-08-07T01:04:33;17.95;;;12.32;;
30249;SDS011;17064;47.974;13.826;2022-08-07T01:09:55;13.95;;;11.00;;
30249;SDS011;17064;47.974;13.826;2022-08-07T01:15:16;14.88;;;11.32;;
30249;SDS011;17064;47.974;13.826;2022-08-07T01:20:41;16.48;;;12.32;;
30249;SDS011;17064;47.974;13.826;2022-08-07T01:26:05;22.40;;;12.93;;
30249;SDS011;17064;47.974;13.826;2022-08-07T01:31:31;14.90;;;12.90;;
30249;SDS011;17064;47.974;13.826;2022-08-07T01:36:52;21.52;;;12.82;;
30249;SDS011;17064;47.974;13.826;2022-08-07T01:42:13;15.98;;;11.75;;
30249;SDS011;17064;47.974;13.826;2022-08-07T01:47:35;16.13;;;13.00;;
30249;SDS011;17064;47.974;13.826;2022-08-07T01:52:57;15.88;;;13.50;;
30249;SDS011;17064;47.974;13.826;2022-08-07T01:58:20;14.00;;;11.32;;
30249;SDS011;17064;47.974;13.826;2022-08-07T02:03:44;19.17;;;12.13;;
30249;SDS011;17064;47.974;13.826;2022-08-07T02:09:16;16.00;;;12.40;;
30249;SDS011;17064;47.974;13.826;2022-08-07T02:14:39;16.45;;;12.40;;
30249;SDS011;17064;47.974;13.826;2022-08-07T02:20:01;14.82;;;11.60;;
30249;SDS011;17064;47.974;13.826;2022-08-07T02:25:23;14.52;;;11.20;;
30249;SDS011;17064;47.974;13.826;2022-08-07T02:30:46;13.18;;;10.65;;
30249;SDS011;17064;47.974;13.826;2022-08-07T02:36:09;10.43;;;9.38;;
30249;SDS011;17064;47.974;13.826;2022-08-07T02:41:31;15.95;;;8.77;;
30249;SDS011;17064;47.974;13.826;2022-08-07T02:46:53;8.30;;;7.45;;
30249;SDS011;17064;47.974;13.826;2022-08-07T02:52:21;9.25;;;7.00;;
30249;SDS011;17064;47.974;13.826;2022-08-07T02:57:45;6.82;;;6.13;;
30249;SDS011;17064;47.974;13.826;2022-08-07T03:03:08;6.90;;;6.20;;
30249;SDS011;17064;47.974;13.826;2022-08-07T03:08:30;8.37;;;6.13;;
30249;SDS011;17064;47.974;13.826;2022-08-07T03:13:52;6.90;;;4.90;;
30249;SDS011;17064;47.974;13.826;2022-08-07T03:19:13;6.25;;;5.47;;
30249;SDS011;17064;47.974;13.826;2022-08-07T03:24:35;9.25;;;5.80;;
30249;SDS011;17064;47.974;13.826;2022-08-07T03:29:56;6.90;;;5.30;;
30249;SDS011;17064;47.974;13.826;2022-08-07T03:35:20;8.23;;;5.38;;
30249;SDS011;17064;47.974;13.826;2022-08-07T03:40:47;8.25;;;6.00;;
30249;SDS011;17064;47.974;13.826;2022-08-07T03:46:10;11.07;;;5.53;;
30249;SDS011;17064;47.974;13.826;2022-08-07T03:51:33;7.65;;;4.93;;
30249;SDS011;17064;47.974;13.826;2022-08-07T03:56:55;7.80;;;6.03;;
30249;SDS011;17064;47.974;13.826;2022-08-07T04:02:17;5.93;;;4.90;;
30249;SDS011;17064;47.974;13.826;2022-08-07T04:07:43;8.60;;;5.30;;
30249;SDS011;17064;47.974;13.826;2022-08-07T04:13:05;8.48;;;4.93;;
30249;SDS011;17064;47.974;13.826;2022-08-07T04:18:27;5.20;;;4.70;;
30249;SDS011;17064;47.974;13.826;2022-08-07T04:23:48;7.78;;;5.18;;
30249;SDS011;17064;47.974;13.826;2022-08-07T04:29:10;6.00;;;4.72;;
30249;SDS011;17064;47.974;13.826;2022-08-07T04:34:31;6.85;;;4.65;;
30249;SDS011;17064;47.974;13.826;2022-08-07T04:39:53;7.10;;;4.15;;
30249;SDS011;17064;47.974;13.826;2022-08-07T04:45:14;6.13;;;4.15;;
30249;SDS011;17064;47.974;13.826;2022-08-07T04:50:46;5.32;;;3.95;;
30249;SDS011;17064;47.974;13.826;2022-08-07T05:01:56;5.47;;;4.35;;
30249;SDS011;17064;47.974;13.826;2022-08-07T05:07:39;8.95;;;4.07;;
30249;SDS011;17064;47.974;13.826;2022-08-07T05:13:08;4.90;;;3.60;;
30249;SDS011;17064;47.974;13.826;2022-08-07T05:18:38;4.47;;;3.10;;
30249;SDS011;17064;47.974;13.826;2022-08-07T05:24:03;5.10;;;2.90;;
30249;SDS011;17064;47.974;13.826;2022-08-07T05:29:29;3.45;;;3.15;;
30249;SDS011;17064;47.974;13.826;2022-08-07T05:34:53;4.22;;;3.00;;
30249;SDS011;17064;47.974;13.826;2022-08-07T05:40:16;3.40;;;3.10;;
30249;SDS011;17064;47.974;13.826;2022-08-07T05:45:38;6.28;;;4.03;;
30249;SDS011;17064;47.974;13.826;2022-08-07T05:51:00;6.32;;;3.80;;
30249;SDS011;17064;47.974;13.826;2022-08-07T05:56:21;4.88;;;3.60;;
30249;SDS011;17064;47.974;13.826;2022-08-07T06:01:44;4.97;;;3.70;;
30249;SDS011;17064;47.974;13.826;2022-08-07T06:07:06;5.90;;;4.00;;
30249;SDS011;17064;47.974;13.826;2022-08-07T06:12:28;5.38;;;4.20;;
30249;SDS011;17064;47.974;13.826;2022-08-07T06:17:49;6.47;;;3.60;;
30249;SDS011;17064;47.974;13.826;2022-08-07T06:23:11;10.75;;;4.43;;
30249;SDS011;17064;47.974;13.826;2022-08-07T06:28:32;7.68;;;4.78;;
30249;SDS011;17064;47.974;13.826;2022-08-07T06:33:54;5.57;;;4.53;;
30249;SDS011;17064;47.974;13.826;2022-08-07T06:39:15;10.75;;;5.05;;
30249;SDS011;17064;47.974;13.826;2022-08-07T06:44:36;5.38;;;4.50;;
30249;SDS011;17064;47.974;13.826;2022-08-07T06:49:59;8.48;;;4.55;;
30249;SDS011;17064;47.974;13.826;2022-08-07T06:55:23;6.85;;;4.80;;
30249;SDS011;17064;47.974;13.826;2022-08-07T07:00:48;6.28;;;4.15;;
30249;SDS011;17064;47.974;13.826;2022-08-07T07:06:10;5.68;;;3.50;;
30249;SDS011;17064;47.974;13.826;2022-08-07T07:11:31;6.40;;;4.32;;
30249;SDS011;17064;47.974;13.826;2022-08-07T07:16:53;6.80;;;3.97;;
30249;SDS011;17064;47.974;13.826;2022-08-07T07:22:19;5.80;;;4.10;;
30249;SDS011;17064;47.974;13.826;2022-08-07T07:27:49;9.88;;;4.38;;
30249;SDS011;17064;47.974;13.826;2022-08-07T07:33:17;6.18;;;3.65;;
30249;SDS011;17064;47.974;13.826;2022-08-07T07:38:41;5.28;;;3.40;;
30249;SDS011;17064;47.974;13.826;2022-08-07T07:44:02;6.93;;;3.95;;
30249;SDS011;17064;47.974;13.826;2022-08-07T07:49:26;5.15;;;3.25;;
30249;SDS011;17064;47.974;13.826;2022-08-07T07:54:49;3.28;;;2.97;;
30249;SDS011;17064;47.974;13.826;2022-08-07T08:00:11;3.92;;;3.35;;
30249;SDS011;17064;47.974;13.826;2022-08-07T08:05:35;6.13;;;3.45;;
30249;SDS011;17064;47.974;13.826;2022-08-07T08:10:58;4.78;;;2.78;;
30249;SDS011;17064;47.974;13.826;2022-08-07T08:16:20;5.20;;;2.72;;
30249;SDS011;17064;47.974;13.826;2022-08-07T08:21:52;3.80;;;2.90;;
30249;SDS011;17064;47.974;13.826;2022-08-07T08:27:33;3.97;;;2.80;;
30249;SDS011;17064;47.974;13.826;2022-08-07T08:32:57;3.97;;;2.50;;
30249;SDS011;17064;47.974;13.826;2022-08-07T08:38:22;4.45;;;2.20;;
30249;SDS011;17064;47.974;13.826;2022-08-07T09:00:39;4.55;;;2.70;;
30249;SDS011;17064;47.974;13.826;2022-08-07T09:22:54;5.25;;;2.63;;
30249;SDS011;17064;47.974;13.826;2022-08-07T09:28:32;5.63;;;2.20;;
30249;SDS011;17064;47.974;13.826;2022-08-07T09:34:06;4.57;;;2.60;;
30249;SDS011;17064;47.974;13.826;2022-08-07T09:45:46;4.90;;;2.95;;
30249;SDS011;17064;47.974;13.826;2022-08-07T10:08:23;16.02;;;2.65;;
30249;SDS011;17064;47.974;13.826;2022-08-07T10:25:37;11.75;;;2.70;;
30249;SDS011;17064;47.974;13.826;2022-08-07T10:31:20;23.33;;;2.97;;
30249;SDS011;17064;47.974;13.826;2022-08-07T10:36:58;3.35;;;2.03;;
30249;SDS011;17064;47.974;13.826;2022-08-07T10:48:48;5.50;;;1.85;;
30249;SDS011;17064;47.974;13.826;2022-08-07T10:54:23;3.72;;;2.30;;
30249;SDS011;17064;47.974;13.826;2022-08-07T11:00:06;6.28;;;1.92;;
30249;SDS011;17064;47.974;13.826;2022-08-07T11:16:55;8.25;;;1.73;;
30249;SDS011;17064;47.974;13.826;2022-08-07T11:22:28;8.63;;;1.88;;
30249;SDS011;17064;47.974;13.826;2022-08-07T11:28:00;10.15;;;1.98;;
30249;SDS011;17064;47.974;13.826;2022-08-07T11:33:33;3.90;;;1.77;;
30249;SDS011;17064;47.974;13.826;2022-08-07T11:39:03;4.45;;;1.88;;
30249;SDS011;17064;47.974;13.826;2022-08-07T11:44:53;4.13;;;1.45;;
30249;SDS011;17064;47.974;13.826;2022-08-07T12:07:20;1.33;;;1.08;;
30249;SDS011;17064;47.974;13.826;2022-08-07T12:12:46;3.75;;;1.38;;
30249;SDS011;17064;47.974;13.826;2022-08-07T12:29:14;1.48;;;1.38;;
30249;SDS011;17064;47.974;13.826;2022-08-07T12:34:48;6.28;;;1.25;;
30249;SDS011;17064;47.974;13.826;2022-08-07T12:40:10;9.18;;;1.50;;
30249;SDS011;17064;47.974;13.826;2022-08-07T12:45:44;3.92;;;1.45;;
30249;SDS011;17064;47.974;13.826;2022-08-07T12:56:32;4.60;;;1.52;;
30249;SDS011;17064;47.974;13.826;2022-08-07T13:30:22;1.50;;;1.20;;
30249;SDS011;17064;47.974;13.826;2022-08-07T13:35:47;8.80;;;1.20;;
30249;SDS011;17064;47.974;13.826;2022-08-07T13:47:00;10.68;;;1.33;;
30249;SDS011;17064;47.974;13.826;2022-08-07T13:52:22;1.67;;;1.00;;
30249;SDS011;17064;47.974;13.826;2022-08-07T13:57:48;4.68;;;1.80;;
30249;SDS011;17064;47.974;13.826;2022-08-07T14:03:11;4.20;;;1.30;;
30249;SDS011;17064;47.974;13.826;2022-08-07T14:08:38;1.25;;;1.15;;
30249;SDS011;17064;47.974;13.826;2022-08-07T14:14:06;2.50;;;1.20;;
30249;SDS011;17064;47.974;13.826;2022-08-07T14:24:58;4.82;;;1.50;;
30249;SDS011;17064;47.974;13.826;2022-08-07T14:30:26;2.47;;;1.30;;
30249;SDS011;17064;47.974;13.826;2022-08-07T14:35:53;4.63;;;1.05;;
30249;SDS011;17064;47.974;13.826;2022-08-07T14:41:17;11.10;;;1.92;;
30249;SDS011;17064;47.974;13.826;2022-08-07T14:46:45;4.72;;;1.30;;
30249;SDS011;17064;47.974;13.826;2022-08-07T14:52:08;6.93;;;1.45;;
30249;SDS011;17064;47.974;13.826;2022-08-07T14:57:30;1.92;;;1.20;;
30249;SDS011;17064;47.974;13.826;2022-08-07T15:02:53;4.53;;;1.48;;
30249;SDS011;17064;47.974;13.826;2022-08-07T15:08:23;2.80;;;1.52;;
30249;SDS011;17064;47.974;13.826;2022-08-07T15:13:51;2.78;;;1.77;;
30249;SDS011;17064;47.974;13.826;2022-08-07T15:19:17;3.17;;;1.70;;
30249;SDS011;17064;47.974;13.826;2022-08-07T15:24:41;5.15;;;1.65;;
30249;SDS011;17064;47.974;13.826;2022-08-07T15:30:09;3.05;;;1.70;;
30249;SDS011;17064;47.974;13.826;2022-08-07T15:35:32;6.45;;;1.80;;
30249;SDS011;17064;47.974;13.826;2022-08-07T15:40:57;7.80;;;1.80;;
30249;SDS011;17064;47.974;13.826;2022-08-07T15:46:25;8.90;;;1.77;;
30249;SDS011;17064;47.974;13.826;2022-08-07T15:51:49;1.55;;;1.30;;
30249;SDS011;17064;47.974;13.826;2022-08-07T15:57:14;2.45;;;1.70;;
30249;SDS011;17064;47.974;13.826;2022-08-07T16:02:40;3.53;;;1.50;;
30249;SDS011;17064;47.974;13.826;2022-08-07T16:08:08;2.13;;;1.73;;
30249;SDS011;17064;47.974;13.826;2022-08-07T16:30:04;2.65;;;1.83;;
30249;SDS011;17064;47.974;13.826;2022-08-07T16:35:28;2.55;;;1.83;;
30249;SDS011;17064;47.974;13.826;2022-08-07T16:47:17;3.08;;;1.77;;
30249;SDS011;17064;47.974;13.826;2022-08-07T16:58:31;2.30;;;2.10;;
30249;SDS011;17064;47.974;13.826;2022-08-07T17:15:35;2.00;;;1.80;;
30249;SDS011;17064;47.974;13.826;2022-08-07T17:21:01;2.92;;;1.58;;
30249;SDS011;17064;47.974;13.826;2022-08-07T17:32:20;1.95;;;1.77;;
30249;SDS011;17064;47.974;13.826;2022-08-07T17:43:57;2.70;;;2.08;;
30249;SDS011;17064;47.974;13.826;2022-08-07T17:49:47;2.30;;;2.10;;
30249;SDS011;17064;47.974;13.826;2022-08-07T18:06:45;7.60;;;2.33;;
30249;SDS011;17064;47.974;13.826;2022-08-07T18:12:27;4.10;;;1.88;;
30249;SDS011;17064;47.974;13.826;2022-08-07T18:18:02;3.45;;;2.55;;
30249;SDS011;17064;47.974;13.826;2022-08-07T18:23:48;5.65;;;2.30;;
30249;SDS011;17064;47.974;13.826;2022-08-07T18:29:22;4.10;;;2.30;;
30249;SDS011;17064;47.974;13.826;2022-08-07T18:46:03;2.58;;;2.05;;
30249;SDS011;17064;47.974;13.826;2022-08-07T18:51:39;3.17;;;2.60;;
30249;SDS011;17064;47.974;13.826;2022-08-07T19:20:31;2.40;;;2.20;;
30249;SDS011;17064;47.974;13.826;2022-08-07T19:26:02;3.63;;;2.60;;
30249;SDS011;17064;47.974;13.826;2022-08-07T19:31:33;3.15;;;2.55;;
30249;SDS011;17064;47.974;13.826;2022-08-07T19:36:59;4.70;;;2.42;;
30249;SDS011;17064;47.974;13.826;2022-08-07T19:42:23;4.85;;;2.60;;
30249;SDS011;17064;47.974;13.826;2022-08-07T19:47:52;2.60;;;2.40;;
30249;SDS011;17064;47.974;13.826;2022-08-07T19:53:14;2.60;;;2.40;;
30249;SDS011;17064;47.974;13.826;2022-08-07T19:58:35;2.55;;;2.35;;
30249;SDS011;17064;47.974;13.826;2022-08-07T20:03:58;3.03;;;2.33;;
30249;SDS011;17064;47.974;13.826;2022-08-07T20:09:23;3.03;;;2.60;;
30249;SDS011;17064;47.974;13.826;2022-08-07T20:14:46;3.28;;;2.83;;
30249;SDS011;17064;47.974;13.826;2022-08-07T20:20:09;2.72;;;2.53;;
30249;SDS011;17064;47.974;13.826;2022-08-07T20:25:31;3.42;;;3.00;;
30249;SDS011;17064;47.974;13.826;2022-08-07T20:30:53;3.92;;;3.00;;
30249;SDS011;17064;47.974;13.826;2022-08-07T20:36:15;6.05;;;3.17;;
30249;SDS011;17064;47.974;13.826;2022-08-07T20:41:39;4.47;;;3.03;;
30249;SDS011;17064;47.974;13.826;2022-08-07T20:47:02;3.38;;;3.08;;
30249;SDS011;17064;47.974;13.826;2022-08-07T20:52:26;4.82;;;3.22;;
30249;SDS011;17064;47.974;13.826;2022-08-07T20:57:58;6.45;;;3.20;;
30249;SDS011;17064;47.974;13.826;2022-08-07T21:03:21;6.07;;;2.88;;
30249;SDS011;17064;47.974;13.826;2022-08-07T21:09:05;4.53;;;3.20;;
30249;SDS011;17064;47.974;13.826;2022-08-07T21:14:26;4.03;;;3.58;;
30249;SDS011;17064;47.974;13.826;2022-08-07T21:19:54;5.35;;;3.58;;
30249;SDS011;17064;47.974;13.826;2022-08-07T21:25:19;3.17;;;2.88;;
30249;SDS011;17064;47.974;13.826;2022-08-07T21:31:00;3.40;;;3.10;;
30249;SDS011;17064;47.974;13.826;2022-08-07T21:36:29;4.75;;;2.88;;
30249;SDS011;17064;47.974;13.826;2022-08-07T21:42:03;5.20;;;3.08;;
30249;SDS011;17064;47.974;13.826;2022-08-07T21:47:44;3.20;;;2.90;;
30249;SDS011;17064;47.974;13.826;2022-08-07T21:53:21;6.03;;;3.50;;
30249;SDS011;17064;47.974;13.826;2022-08-07T22:04:27;3.60;;;2.90;;
30249;SDS011;17064;47.974;13.826;2022-08-07T22:09:55;4.93;;;3.38;;
30249;SDS011;17064;47.974;13.826;2022-08-07T22:15:22;3.65;;;3.35;;
30249;SDS011;17064;47.974;13.826;2022-08-07T22:21:10;3.83;;;3.25;;
30249;SDS011;17064;47.974;13.826;2022-08-07T22:26:44;3.78;;;2.72;;
30249;SDS011;17064;47.974;13.826;2022-08-07T22:32:14;3.45;;;2.53;;
30249;SDS011;17064;47.974;13.826;2022-08-07T22:38:02;2.90;;;2.50;;
